Langley Park, United Kingdom
Current Conditions -  °F | °C
As of 3:20 PM on Friday 19 Dec 2014 (Local Time) from EGNT Reporting Station
Light Rain Light Rain  
Wind Chill: 31°   Ceiling: Unl
Heat Index: 41°   Visibility: 6mi
Dew Point: 36°   Wind: 23mph
Humidity: 81%   Direction: 270°W
Pressure: 29.74"   Gusts: NA
Location:  54.8°N, 1.67°W
Report Text: EGNT 191520Z 27020KT 9999 -RA FEW018 05/02 Q1007
Loading
Personal Weather Stations






























Interactive Weather Map New forecast layout! Learn more

10-Day Weather Forecast

Advertisements
Track Severe Weather on mobile